createdAt,value
2023-02-03T00:00:01.026Z,4.28
2023-02-03T00:02:34.286Z,3.95
2023-02-03T00:05:01.571Z,3.67
2023-02-03T00:07:28.673Z,3.95
2023-02-03T00:09:56.833Z,3.92
2023-02-03T00:12:23.910Z,4.25
2023-02-03T00:14:50.998Z,3.65
2023-02-03T00:17:18.168Z,3.67
2023-02-03T00:19:45.263Z,3.58
2023-02-03T00:22:13.457Z,3.45
2023-02-03T00:24:40.588Z,4.18
2023-02-03T00:27:07.707Z,4.20
2023-02-03T00:29:34.833Z,3.40
2023-02-03T00:32:02.165Z,3.78
2023-02-03T00:34:32.410Z,3.28
2023-02-03T00:37:00.973Z,3.75
2023-02-03T00:39:28.056Z,3.50
2023-02-03T00:41:56.344Z,3.50
2023-02-03T00:44:23.485Z,3.47
2023-02-03T00:46:51.604Z,3.45
2023-02-03T00:49:18.704Z,4.35
2023-02-03T00:51:45.926Z,4.32
2023-02-03T00:54:14.550Z,4.55
2023-02-03T00:56:41.846Z,4.00
2023-02-03T00:59:08.959Z,4.25
2023-02-03T01:01:36.284Z,4.70
2023-02-03T01:04:03.935Z,4.60
2023-02-03T01:06:31.105Z,3.97
2023-02-03T01:08:58.202Z,3.58
2023-02-03T01:11:29.546Z,4.32
2023-02-03T01:13:59.307Z,4.20
2023-02-03T01:16:28.594Z,4.40
2023-02-03T01:18:55.933Z,4.40
2023-02-03T01:21:24.800Z,4.55
2023-02-03T01:23:52.370Z,4.00
2023-02-03T01:26:24.172Z,4.07
2023-02-03T01:28:59.348Z,4.07
2023-02-03T01:31:36.978Z,3.15
2023-02-03T01:34:04.218Z,3.17
2023-02-03T01:36:32.467Z,3.70
2023-02-03T01:38:59.712Z,3.00
2023-02-03T01:41:31.117Z,3.58
2023-02-03T01:43:59.487Z,3.78
2023-02-03T01:46:38.797Z,3.17
2023-02-03T01:49:10.385Z,3.25
2023-02-03T01:51:39.756Z,3.70
2023-02-03T01:54:18.581Z,3.58
2023-02-03T01:56:48.723Z,3.15
2023-02-03T01:59:17.665Z,3.35
2023-02-03T02:01:44.947Z,3.45
2023-02-03T02:04:12.069Z,3.28
2023-02-03T02:06:39.146Z,2.88
2023-02-03T02:09:11.956Z,2.92
2023-02-03T02:11:39.060Z,2.80
2023-02-03T02:14:07.908Z,2.53
2023-02-03T02:17:25.813Z,3.63
2023-02-03T02:20:26.785Z,3.03
2023-02-03T02:23:42.758Z,2.97
2023-02-03T02:26:53.535Z,2.85
2023-02-03T02:29:51.267Z,2.75
2023-02-03T02:33:06.041Z,2.65
2023-02-03T02:36:15.099Z,2.63
2023-02-03T02:39:34.902Z,2.95
2023-02-03T02:42:08.946Z,2.67
2023-02-03T02:44:41.133Z,2.60
2023-02-03T02:47:19.683Z,3.60
2023-02-03T02:50:13.557Z,3.30
2023-02-03T02:52:41.747Z,3.05
2023-02-03T02:55:27.775Z,3.72
2023-02-03T02:58:01.322Z,4.32
2023-02-03T03:00:31.438Z,4.50
2023-02-03T03:03:06.747Z,5.00
2023-02-03T03:05:34.539Z,6.30
2023-02-03T03:08:02.861Z,5.75
2023-02-03T03:10:31.495Z,5.55
2023-02-03T03:13:03.223Z,5.63
2023-02-03T03:15:31.690Z,5.78
2023-02-03T03:18:00.693Z,5.00
2023-02-03T03:20:28.508Z,4.97
2023-02-03T03:23:07.954Z,5.00
2023-02-03T03:25:41.337Z,4.90
2023-02-03T03:28:24.222Z,4.93
2023-02-03T03:30:51.409Z,4.47
2023-02-03T03:33:18.596Z,4.65
2023-02-03T03:36:00.997Z,4.57
2023-02-03T03:38:39.192Z,4.60
2023-02-03T03:41:13.315Z,4.80
2023-02-03T03:43:42.292Z,4.75
2023-02-03T03:46:19.486Z,5.43
2023-02-03T03:49:19.141Z,5.60
2023-02-03T03:51:56.603Z,4.53
2023-02-03T03:54:24.041Z,4.43
2023-02-03T03:56:58.552Z,4.97
2023-02-03T03:59:26.547Z,3.95
2023-02-03T04:01:53.742Z,3.92
2023-02-03T04:04:21.022Z,3.85
2023-02-03T04:06:48.219Z,3.95
2023-02-03T04:09:15.320Z,3.97
2023-02-03T04:12:01.269Z,4.47
2023-02-03T04:14:38.974Z,3.72
2023-02-03T04:17:06.239Z,4.22
2023-02-03T04:19:33.332Z,3.85
2023-02-03T04:22:00.469Z,4.50
2023-02-03T04:24:27.647Z,4.28
2023-02-03T04:26:54.903Z,4.55
2023-02-03T04:29:21.957Z,4.80
2023-02-03T04:31:49.342Z,4.72
2023-02-03T04:34:16.481Z,4.45
2023-02-03T04:36:43.575Z,4.88
2023-02-03T04:39:10.819Z,5.20
2023-02-03T04:41:37.970Z,4.90
2023-02-03T04:44:05.201Z,5.05
2023-02-03T04:46:32.281Z,5.32
2023-02-03T04:48:59.390Z,5.70
2023-02-03T04:51:26.545Z,5.93
2023-02-03T04:53:53.645Z,5.45
2023-02-03T04:56:20.780Z,5.00
2023-02-03T04:58:47.927Z,5.65
2023-02-03T05:01:15.056Z,5.50
2023-02-03T05:03:42.202Z,6.28
2023-02-03T05:06:09.300Z,5.70
2023-02-03T05:08:36.483Z,6.45
2023-02-03T05:11:04.714Z,6.90
2023-02-03T05:13:32.890Z,7.90
2023-02-03T05:15:59.986Z,6.88
2023-02-03T05:18:27.119Z,8.13
2023-02-03T05:20:54.214Z,9.80
2023-02-03T05:23:21.357Z,9.50
2023-02-03T05:25:48.737Z,8.45
2023-02-03T05:28:15.925Z,9.43
2023-02-03T05:30:43.082Z,9.02
2023-02-03T05:33:10.277Z,8.02
2023-02-03T05:35:37.713Z,7.35
2023-02-03T05:38:04.954Z,7.03
2023-02-03T05:40:50.600Z,7.13
2023-02-03T05:43:17.727Z,6.80
2023-02-03T05:45:44.907Z,6.50
2023-02-03T05:48:12.177Z,6.22
2023-02-03T05:50:39.338Z,6.90
2023-02-03T05:53:10.367Z,7.03
2023-02-03T05:55:38.012Z,6.20
2023-02-03T05:58:05.277Z,6.35
2023-02-03T06:00:32.451Z,6.22
2023-02-03T06:03:02.392Z,5.72
2023-02-03T06:05:29.968Z,6.35
2023-02-03T06:07:57.142Z,5.57
2023-02-03T06:10:24.359Z,5.03
2023-02-03T06:12:51.631Z,5.38
2023-02-03T06:15:18.997Z,5.25
2023-02-03T06:17:47.620Z,5.10
2023-02-03T06:20:16.465Z,5.20
2023-02-03T06:22:43.727Z,5.30
2023-02-03T06:25:13.016Z,4.85
2023-02-03T06:27:40.943Z,5.30
2023-02-03T06:30:08.903Z,4.60
2023-02-03T06:32:36.096Z,5.18
2023-02-03T06:35:03.404Z,6.18
2023-02-03T06:37:30.497Z,5.68
2023-02-03T06:39:57.621Z,6.20
2023-02-03T06:42:24.701Z,5.93
2023-02-03T06:44:52.385Z,5.40
2023-02-03T06:47:19.650Z,5.15
2023-02-03T06:49:46.738Z,5.55
2023-02-03T06:52:15.470Z,4.57
2023-02-03T06:54:42.600Z,5.90
2023-02-03T06:57:09.677Z,4.88
2023-02-03T06:59:36.919Z,5.00
2023-02-03T07:02:04.203Z,4.15
2023-02-03T07:04:31.466Z,4.60
2023-02-03T07:06:58.558Z,4.95
2023-02-03T07:09:28.457Z,5.22
2023-02-03T07:11:55.550Z,4.88
2023-02-03T07:14:22.622Z,4.50
2023-02-03T07:16:49.749Z,4.97
2023-02-03T07:19:17.848Z,4.15
2023-02-03T07:21:44.935Z,5.22
2023-02-03T07:24:12.101Z,6.65
2023-02-03T07:26:39.231Z,7.00
2023-02-03T07:29:06.347Z,6.93
2023-02-03T07:31:33.564Z,6.78
2023-02-03T07:34:01.240Z,6.22
2023-02-03T07:36:28.919Z,6.50
2023-02-03T07:38:56.131Z,6.05
2023-02-03T07:41:23.314Z,4.90
2023-02-03T07:43:50.380Z,5.35
2023-02-03T07:46:17.731Z,5.00
2023-02-03T07:48:44.915Z,4.88
2023-02-03T07:51:11.995Z,5.57
2023-02-03T07:53:41.368Z,7.03
2023-02-03T07:56:08.493Z,4.72
2023-02-03T07:58:35.567Z,5.15
2023-02-03T08:01:09.071Z,5.35
2023-02-03T08:03:36.175Z,4.80
2023-02-03T08:06:03.282Z,5.00
2023-02-03T08:08:36.848Z,5.53
2023-02-03T08:11:07.026Z,5.67
2023-02-03T08:13:34.178Z,4.75
2023-02-03T08:16:01.360Z,6.30
2023-02-03T08:18:32.620Z,5.45
2023-02-03T08:21:00.778Z,4.82
2023-02-03T08:23:27.841Z,5.60
2023-02-03T08:25:54.939Z,6.05
2023-02-03T08:28:22.069Z,5.15
2023-02-03T08:30:49.882Z,6.25
2023-02-03T08:36:05.763Z,5.45
2023-02-03T08:38:32.981Z,5.50
2023-02-03T08:41:00.153Z,5.93
2023-02-03T08:43:27.411Z,5.32
2023-02-03T08:45:54.578Z,7.03
2023-02-03T08:48:21.871Z,5.63
2023-02-03T08:50:52.925Z,6.18
2023-02-03T08:53:20.353Z,4.60
2023-02-03T08:55:47.471Z,2.97
2023-02-03T08:58:17.598Z,5.75
2023-02-03T09:00:49.825Z,4.85
2023-02-03T09:03:21.249Z,5.38
2023-02-03T09:05:48.523Z,5.15
2023-02-03T09:08:15.915Z,4.85
2023-02-03T09:10:43.915Z,4.63
2023-02-03T09:13:11.011Z,5.35
2023-02-03T09:15:38.169Z,4.80
2023-02-03T09:18:05.372Z,5.00
2023-02-03T09:20:33.753Z,5.53
2023-02-03T09:23:01.602Z,5.25
2023-02-03T09:25:29.063Z,3.22
2023-02-03T09:27:56.239Z,3.55
2023-02-03T09:30:26.732Z,5.70
2023-02-03T09:32:56.461Z,4.50
2023-02-03T09:35:23.921Z,3.22
2023-02-03T09:37:51.113Z,4.60
2023-02-03T09:40:27.410Z,5.57
2023-02-03T09:43:42.191Z,3.50
2023-02-03T09:46:26.878Z,5.38
2023-02-03T09:49:08.575Z,5.25
2023-02-03T09:52:03.994Z,6.28
2023-02-03T09:54:47.929Z,6.20
2023-02-03T09:57:25.164Z,5.00
2023-02-03T09:59:53.031Z,6.20
2023-02-03T10:02:34.998Z,6.13
2023-02-03T10:05:23.174Z,5.88
2023-02-03T10:08:23.701Z,6.38
2023-02-03T10:11:16.816Z,9.38
2023-02-03T10:14:20.960Z,8.60
2023-02-03T10:17:07.114Z,7.75
2023-02-03T10:20:06.086Z,7.90
2023-02-03T10:22:40.886Z,10.30
2023-02-03T10:25:38.450Z,10.45
2023-02-03T10:28:20.709Z,9.20
2023-02-03T10:30:57.487Z,8.70
2023-02-03T10:33:30.026Z,9.18
2023-02-03T10:36:11.806Z,8.20
2023-02-03T10:39:31.266Z,6.55
2023-02-03T10:42:02.713Z,5.60
2023-02-03T10:45:00.409Z,4.65
2023-02-03T10:47:36.203Z,5.53
2023-02-03T10:50:23.411Z,6.05
2023-02-03T10:52:50.544Z,5.68
2023-02-03T10:55:26.709Z,5.57
2023-02-03T10:58:11.050Z,5.93
2023-02-03T11:01:17.914Z,6.95
2023-02-03T11:04:03.995Z,6.05
2023-02-03T11:06:32.456Z,9.55
2023-02-03T11:08:59.961Z,9.85
2023-02-03T11:11:36.873Z,10.45
2023-02-03T11:14:06.316Z,10.68
2023-02-03T11:16:44.513Z,9.07
2023-02-03T11:19:21.711Z,12.20
2023-02-03T11:21:54.400Z,12.70
2023-02-03T11:24:29.135Z,12.70
2023-02-03T11:27:16.116Z,12.38
2023-02-03T11:29:48.003Z,12.68
2023-02-03T11:32:37.351Z,17.73
2023-02-03T11:35:25.239Z,17.30
2023-02-03T11:38:01.936Z,11.98
2023-02-03T11:40:34.131Z,14.63
2023-02-03T11:43:06.161Z,15.70
2023-02-03T11:45:43.645Z,14.63
2023-02-03T11:48:35.349Z,14.95
2023-02-03T11:51:36.380Z,20.15
2023-02-03T11:54:31.591Z,28.75
2023-02-03T11:57:32.845Z,31.30
2023-02-03T12:00:15.278Z,20.35
2023-02-03T12:03:05.598Z,16.48
2023-02-03T12:05:44.619Z,14.98
2023-02-03T12:08:37.462Z,14.30
2023-02-03T12:11:48.639Z,9.70
2023-02-03T12:14:51.305Z,9.52
2023-02-03T12:18:00.700Z,8.65
2023-02-03T12:20:42.881Z,9.25
2023-02-03T12:23:58.589Z,8.38
2023-02-03T12:26:37.145Z,8.68
2023-02-03T12:29:23.357Z,8.80
2023-02-03T12:32:37.055Z,10.85
2023-02-03T12:35:25.585Z,8.55
2023-02-03T12:38:31.424Z,4.78
2023-02-03T12:41:00.947Z,3.08
2023-02-03T12:43:49.267Z,2.13
2023-02-03T12:46:31.279Z,2.40
2023-02-03T12:49:22.058Z,2.00
2023-02-03T12:52:01.454Z,2.20
2023-02-03T12:55:08.953Z,2.72
2023-02-03T12:57:45.695Z,1.70
2023-02-03T13:00:43.106Z,2.13
2023-02-03T13:03:18.303Z,1.65
2023-02-03T13:06:29.016Z,1.80
2023-02-03T13:09:29.317Z,1.50
2023-02-03T13:12:22.251Z,1.48
2023-02-03T13:14:51.773Z,1.42
2023-02-03T13:17:27.011Z,1.38
2023-02-03T13:20:00.460Z,2.40
2023-02-03T13:22:27.719Z,2.00
2023-02-03T13:25:02.228Z,2.70
2023-02-03T13:27:42.960Z,2.00
2023-02-03T13:30:52.026Z,1.65
2023-02-03T13:33:47.853Z,1.30
2023-02-03T13:36:47.480Z,1.60
2023-02-03T13:39:36.451Z,1.65
2023-02-03T13:42:27.624Z,1.70
2023-02-03T13:45:17.278Z,2.00
2023-02-03T13:47:49.796Z,2.03
2023-02-03T13:50:29.538Z,1.67
2023-02-03T13:53:07.267Z,1.40
2023-02-03T13:55:37.946Z,1.65
2023-02-03T13:58:07.582Z,1.55
2023-02-03T14:00:44.465Z,2.05
2023-02-03T14:03:29.669Z,1.75
2023-02-03T14:06:01.783Z,2.42
2023-02-03T14:08:31.373Z,2.50
2023-02-03T14:11:39.992Z,2.10
2023-02-03T14:14:08.404Z,2.08
2023-02-03T14:16:44.569Z,1.77
2023-02-03T14:19:33.281Z,1.65
2023-02-03T14:22:10.618Z,1.90
2023-02-03T14:24:57.180Z,1.80
2023-02-03T14:27:28.471Z,1.92
2023-02-03T14:30:16.891Z,1.98
2023-02-03T14:33:02.816Z,2.03
2023-02-03T14:35:43.282Z,2.22
2023-02-03T14:38:23.601Z,2.70
2023-02-03T14:41:08.717Z,2.17
2023-02-03T14:43:58.430Z,2.67
2023-02-03T14:46:54.681Z,3.00
2023-02-03T14:50:10.673Z,4.30
2023-02-03T14:53:22.288Z,4.20
2023-02-03T14:56:20.122Z,3.83
2023-02-03T14:58:54.950Z,2.38
2023-02-03T15:01:46.710Z,3.15
2023-02-03T15:04:17.847Z,3.13
2023-02-03T15:07:02.749Z,2.85
2023-02-03T15:09:58.696Z,3.55
2023-02-03T15:12:49.578Z,3.15
2023-02-03T15:15:40.018Z,2.38
2023-02-03T15:18:32.876Z,2.15
2023-02-03T15:21:00.147Z,1.77
2023-02-03T15:23:30.412Z,2.58
2023-02-03T15:26:02.822Z,2.00
2023-02-03T15:28:30.476Z,2.70
2023-02-03T15:31:25.601Z,4.00
2023-02-03T15:34:35.426Z,2.83
2023-02-03T15:37:08.781Z,2.97
2023-02-03T15:39:47.077Z,2.70
2023-02-03T15:42:21.130Z,1.70
2023-02-03T15:45:07.502Z,1.88
2023-02-03T15:47:39.632Z,2.13
2023-02-03T15:50:21.904Z,2.10
2023-02-03T15:52:49.707Z,2.03
2023-02-03T15:55:33.372Z,2.00
2023-02-03T15:58:00.762Z,2.20
2023-02-03T16:00:33.483Z,3.67
2023-02-03T16:03:00.888Z,3.00
2023-02-03T16:05:32.185Z,3.90
2023-02-03T16:08:40.523Z,3.03
2023-02-03T16:11:38.178Z,3.25
2023-02-03T16:14:10.868Z,2.58
2023-02-03T16:16:52.124Z,3.38
2023-02-03T16:19:32.394Z,3.30
2023-02-03T16:22:00.006Z,3.65
2023-02-03T16:24:38.784Z,3.42
2023-02-03T16:27:27.830Z,3.33
2023-02-03T16:30:39.427Z,3.90
2023-02-03T16:33:27.964Z,4.18
2023-02-03T16:36:14.998Z,5.35
2023-02-03T16:39:10.074Z,6.47
2023-02-03T16:44:41.892Z,8.23
2023-02-03T16:47:45.945Z,7.30
2023-02-03T16:50:39.921Z,6.60
2023-02-03T16:53:12.666Z,8.30
2023-02-03T16:55:40.631Z,8.10
2023-02-03T16:58:08.768Z,9.90
2023-02-03T17:00:36.003Z,9.20
2023-02-03T17:03:06.385Z,9.68
2023-02-03T17:05:40.619Z,7.63
2023-02-03T17:08:07.745Z,6.65
2023-02-03T17:10:38.945Z,9.38
2023-02-03T17:13:06.125Z,9.63
2023-02-03T17:15:33.592Z,9.30
2023-02-03T17:18:01.165Z,10.95
2023-02-03T17:20:28.292Z,11.63
2023-02-03T17:22:55.557Z,9.82
2023-02-03T17:25:22.949Z,8.88
2023-02-03T17:27:50.441Z,7.50
2023-02-03T17:30:17.735Z,8.18
2023-02-03T17:32:44.927Z,8.27
2023-02-03T17:35:12.112Z,6.43
2023-02-03T17:37:39.730Z,5.93
2023-02-03T17:54:08.062Z,5.20
2023-02-03T17:56:35.810Z,4.50
2023-02-03T17:59:05.908Z,4.28
2023-02-03T18:01:33.266Z,3.70
2023-02-03T18:04:02.301Z,4.18
2023-02-03T18:06:30.750Z,4.63
2023-02-03T18:09:01.322Z,4.93
2023-02-03T18:11:29.469Z,3.17
2023-02-03T18:13:59.398Z,6.30
2023-02-03T18:16:29.404Z,3.80
2023-02-03T18:18:56.741Z,3.88
2023-02-03T18:21:24.632Z,4.68
2023-02-03T18:23:51.921Z,4.07
2023-02-03T18:26:19.978Z,3.15
2023-02-03T18:28:47.298Z,3.58
2023-02-03T18:31:17.538Z,3.20
2023-02-03T18:33:45.469Z,3.60
2023-02-03T18:36:15.484Z,5.07
2023-02-03T18:38:43.762Z,4.65
2023-02-03T18:41:24.523Z,4.13
2023-02-03T18:43:51.865Z,3.72
2023-02-03T18:46:24.447Z,4.43
2023-02-03T18:48:51.759Z,3.65
2023-02-03T18:51:20.290Z,3.65
2023-02-03T18:53:49.161Z,4.65
2023-02-03T18:56:21.939Z,3.67
2023-02-03T18:58:49.083Z,3.58
2023-02-03T19:01:27.037Z,3.33
2023-02-03T19:03:55.254Z,3.78
2023-02-03T19:06:22.726Z,4.78
2023-02-03T19:08:50.153Z,4.05
2023-02-03T19:11:17.641Z,4.85
2023-02-03T19:13:44.873Z,4.05
2023-02-03T19:16:14.489Z,4.15
2023-02-03T19:18:41.831Z,4.07
2023-02-03T19:21:11.209Z,3.22
2023-02-03T19:23:39.762Z,3.78
2023-02-03T19:26:07.075Z,3.40
2023-02-03T19:28:35.436Z,3.50
2023-02-03T19:31:15.140Z,4.18
2023-02-03T19:33:42.701Z,4.25
2023-02-03T19:36:10.195Z,4.13
2023-02-03T19:38:37.362Z,4.65
2023-02-03T19:41:04.654Z,4.22
2023-02-03T19:43:32.085Z,4.45
2023-02-03T19:45:59.438Z,5.05
2023-02-03T19:48:26.570Z,5.05
2023-02-03T19:50:53.735Z,4.57
2023-02-03T19:53:21.642Z,4.60
2023-02-03T19:55:48.799Z,5.28
2023-02-03T19:58:16.121Z,4.35
2023-02-03T20:00:43.725Z,6.10
2023-02-03T20:03:11.106Z,5.22
2023-02-03T20:05:38.468Z,4.75
2023-02-03T20:08:05.966Z,6.63
2023-02-03T20:10:33.352Z,4.82
2023-02-03T20:13:00.919Z,5.05
2023-02-03T20:15:28.106Z,4.45
2023-02-03T20:17:55.340Z,4.55
2023-02-03T20:20:22.605Z,4.40
2023-02-03T20:22:49.872Z,4.35
2023-02-03T20:25:17.187Z,5.72
2023-02-03T20:27:44.586Z,5.88
2023-02-03T20:30:14.289Z,4.50
2023-02-03T20:32:41.483Z,4.18
2023-02-03T20:35:12.700Z,5.82
2023-02-03T20:37:54.583Z,6.20
2023-02-03T20:40:23.216Z,4.40
2023-02-03T20:42:51.237Z,5.05
2023-02-03T20:45:19.643Z,5.60
2023-02-03T20:47:46.886Z,4.82
2023-02-03T20:50:25.193Z,6.07
2023-02-03T20:52:56.536Z,5.30
2023-02-03T20:55:23.750Z,5.28
2023-02-03T20:57:51.621Z,5.22
2023-02-03T21:00:24.714Z,4.35
2023-02-03T21:03:14.954Z,4.80
2023-02-03T21:05:43.505Z,5.03
2023-02-03T21:08:18.356Z,4.53
2023-02-03T21:10:46.384Z,4.10
2023-02-03T21:13:27.993Z,3.45
2023-02-03T21:16:00.075Z,4.15
2023-02-03T21:18:39.904Z,4.10
2023-02-03T21:21:39.442Z,3.72
2023-02-03T21:24:30.224Z,4.13
2023-02-03T21:26:58.402Z,3.72
2023-02-03T21:29:32.516Z,4.45
2023-02-03T21:32:00.315Z,3.85
2023-02-03T21:34:33.272Z,3.67
2023-02-03T21:37:38.231Z,4.82
2023-02-03T21:40:26.733Z,3.72
2023-02-03T21:42:54.361Z,4.45
2023-02-03T21:45:41.094Z,4.38
2023-02-03T21:48:46.461Z,4.65
2023-02-03T21:51:15.788Z,4.50
2023-02-03T21:53:54.139Z,4.50
2023-02-03T21:56:40.830Z,4.43
2023-02-03T21:59:17.119Z,3.55
2023-02-03T22:01:44.498Z,5.28
2023-02-03T22:04:11.599Z,4.93
2023-02-03T22:06:49.132Z,6.13
2023-02-03T22:09:18.763Z,6.93
2023-02-03T22:11:46.036Z,5.63
2023-02-03T22:14:14.335Z,4.15
2023-02-03T22:16:41.536Z,4.90
2023-02-03T22:19:11.078Z,4.03
2023-02-03T22:21:38.250Z,3.53
2023-02-03T22:24:07.034Z,4.10
2023-02-03T22:26:34.165Z,3.70
2023-02-03T22:29:02.615Z,3.92
2023-02-03T22:31:29.879Z,3.55
2023-02-03T22:33:57.090Z,3.08
2023-02-03T22:36:28.029Z,3.13
2023-02-03T22:38:55.162Z,3.15
2023-02-03T22:41:23.259Z,3.47
2023-02-03T22:43:50.395Z,2.75
2023-02-03T22:46:20.606Z,2.97
2023-02-03T22:48:47.767Z,3.60
2023-02-03T22:51:17.965Z,3.60
2023-02-03T22:53:47.103Z,3.45
2023-02-03T22:56:14.188Z,2.75
2023-02-03T22:58:41.875Z,2.72
2023-02-03T23:01:16.436Z,2.72
2023-02-03T23:03:44.603Z,2.70
2023-02-03T23:06:11.921Z,2.95
2023-02-03T23:08:40.128Z,2.70
2023-02-03T23:11:07.254Z,2.75
2023-02-03T23:13:36.318Z,2.58
2023-02-03T23:16:03.607Z,2.65
2023-02-03T23:18:33.140Z,2.40
2023-02-03T23:21:00.340Z,1.92
2023-02-03T23:23:27.493Z,2.88
2023-02-03T23:25:56.343Z,3.13
2023-02-03T23:28:24.049Z,2.53
2023-02-03T23:30:51.277Z,3.20
2023-02-03T23:33:18.442Z,2.50
2023-02-03T23:35:47.151Z,2.20
2023-02-03T23:38:15.483Z,2.95
2023-02-03T23:40:43.019Z,3.15
2023-02-03T23:43:10.190Z,2.47
2023-02-03T23:45:37.378Z,2.20
2023-02-03T23:48:04.858Z,3.83
2023-02-03T23:50:32.331Z,5.10
2023-02-03T23:53:02.499Z,7.68
2023-02-03T23:55:31.268Z,6.70
2023-02-03T23:58:00.234Z,6.28
